sensor_id;sensor_type;location;lat;lon;timestamp;P1;durP1;ratioP1;P2;durP2;ratioP2
34098;SDS011;20374;49.474;10.944;2023-06-10T00:00:39;5.35;;;4.85;;
34098;SDS011;20374;49.474;10.944;2023-06-10T00:03:09;5.68;;;5.18;;
34098;SDS011;20374;49.474;10.944;2023-06-10T00:05:35;5.93;;;5.35;;
34098;SDS011;20374;49.474;10.944;2023-06-10T00:08:04;6.25;;;4.93;;
34098;SDS011;20374;49.474;10.944;2023-06-10T00:10:36;5.90;;;5.40;;
34098;SDS011;20374;49.474;10.944;2023-06-10T00:13:04;5.60;;;5.15;;
34098;SDS011;20374;49.474;10.944;2023-06-10T00:15:35;5.57;;;5.13;;
34098;SDS011;20374;49.474;10.944;2023-06-10T00:18:01;7.13;;;6.00;;
34098;SDS011;20374;49.474;10.944;2023-06-10T00:20:27;6.00;;;5.45;;
34098;SDS011;20374;49.474;10.944;2023-06-10T00:22:57;5.53;;;5.03;;
34098;SDS011;20374;49.474;10.944;2023-06-10T00:25:24;5.85;;;5.35;;
34098;SDS011;20374;49.474;10.944;2023-06-10T00:27:51;6.50;;;5.90;;
34098;SDS011;20374;49.474;10.944;2023-06-10T00:30:17;6.43;;;5.82;;
34098;SDS011;20374;49.474;10.944;2023-06-10T00:32:43;6.80;;;6.15;;
34098;SDS011;20374;49.474;10.944;2023-06-10T00:35:09;5.63;;;5.13;;
34098;SDS011;20374;49.474;10.944;2023-06-10T00:37:35;5.97;;;5.47;;
34098;SDS011;20374;49.474;10.944;2023-06-10T00:40:03;6.05;;;5.55;;
34098;SDS011;20374;49.474;10.944;2023-06-10T00:42:31;6.40;;;5.80;;
34098;SDS011;20374;49.474;10.944;2023-06-10T00:44:57;5.20;;;4.77;;
34098;SDS011;20374;49.474;10.944;2023-06-10T00:47:23;5.97;;;5.38;;
34098;SDS011;20374;49.474;10.944;2023-06-10T00:49:50;6.30;;;5.80;;
34098;SDS011;20374;49.474;10.944;2023-06-10T00:52:16;5.70;;;5.10;;
34098;SDS011;20374;49.474;10.944;2023-06-10T00:54:44;5.90;;;5.40;;
34098;SDS011;20374;49.474;10.944;2023-06-10T00:57:10;5.78;;;5.25;;
34098;SDS011;20374;49.474;10.944;2023-06-10T00:59:38;6.30;;;5.70;;
34098;SDS011;20374;49.474;10.944;2023-06-10T01:02:05;6.50;;;6.00;;
34098;SDS011;20374;49.474;10.944;2023-06-10T01:04:31;7.10;;;6.30;;
34098;SDS011;20374;49.474;10.944;2023-06-10T01:10:05;6.93;;;5.75;;
34098;SDS011;20374;49.474;10.944;2023-06-10T01:15:17;6.00;;;5.53;;
34098;SDS011;20374;49.474;10.944;2023-06-10T01:20:27;6.85;;;6.25;;
34098;SDS011;20374;49.474;10.944;2023-06-10T01:22:56;6.53;;;5.93;;
34098;SDS011;20374;49.474;10.944;2023-06-10T01:25:23;7.03;;;6.40;;
34098;SDS011;20374;49.474;10.944;2023-06-10T01:28:03;6.50;;;5.90;;
34098;SDS011;20374;49.474;10.944;2023-06-10T01:30:56;6.15;;;5.55;;
34098;SDS011;20374;49.474;10.944;2023-06-10T01:33:33;6.82;;;6.13;;
34098;SDS011;20374;49.474;10.944;2023-06-10T01:36:03;6.15;;;5.57;;
34098;SDS011;20374;49.474;10.944;2023-06-10T01:38:36;6.28;;;5.78;;
34098;SDS011;20374;49.474;10.944;2023-06-10T01:41:07;6.30;;;5.73;;
34098;SDS011;20374;49.474;10.944;2023-06-10T01:43:37;8.65;;;5.70;;
34098;SDS011;20374;49.474;10.944;2023-06-10T01:46:03;6.40;;;5.80;;
34098;SDS011;20374;49.474;10.944;2023-06-10T01:48:29;6.50;;;5.93;;
34098;SDS011;20374;49.474;10.944;2023-06-10T01:50:55;6.53;;;5.90;;
34098;SDS011;20374;49.474;10.944;2023-06-10T01:53:22;7.35;;;6.00;;
34098;SDS011;20374;49.474;10.944;2023-06-10T01:55:48;7.00;;;6.40;;
34098;SDS011;20374;49.474;10.944;2023-06-10T01:58:14;7.05;;;6.40;;
34098;SDS011;20374;49.474;10.944;2023-06-10T02:00:40;6.57;;;5.97;;
34098;SDS011;20374;49.474;10.944;2023-06-10T02:03:07;6.82;;;6.22;;
34098;SDS011;20374;49.474;10.944;2023-06-10T02:05:33;7.00;;;5.78;;
34098;SDS011;20374;49.474;10.944;2023-06-10T02:07:59;6.35;;;5.80;;
34098;SDS011;20374;49.474;10.944;2023-06-10T02:10:25;6.22;;;5.72;;
34098;SDS011;20374;49.474;10.944;2023-06-10T02:12:51;6.60;;;6.00;;
34098;SDS011;20374;49.474;10.944;2023-06-10T02:15:18;6.18;;;5.57;;
34098;SDS011;20374;49.474;10.944;2023-06-10T02:17:45;6.05;;;5.53;;
34098;SDS011;20374;49.474;10.944;2023-06-10T02:20:11;6.43;;;5.83;;
34098;SDS011;20374;49.474;10.944;2023-06-10T02:22:38;6.13;;;5.53;;
34098;SDS011;20374;49.474;10.944;2023-06-10T02:25:07;6.97;;;6.38;;
34098;SDS011;20374;49.474;10.944;2023-06-10T02:27:33;7.10;;;6.40;;
34098;SDS011;20374;49.474;10.944;2023-06-10T02:29:59;7.22;;;6.57;;
34098;SDS011;20374;49.474;10.944;2023-06-10T02:32:25;6.57;;;5.97;;
34098;SDS011;20374;49.474;10.944;2023-06-10T02:34:51;5.72;;;5.22;;
34098;SDS011;20374;49.474;10.944;2023-06-10T02:37:19;7.15;;;6.55;;
34098;SDS011;20374;49.474;10.944;2023-06-10T02:39:46;5.93;;;5.35;;
34098;SDS011;20374;49.474;10.944;2023-06-10T02:42:12;6.60;;;6.00;;
34098;SDS011;20374;49.474;10.944;2023-06-10T02:44:38;6.25;;;5.65;;
34098;SDS011;20374;49.474;10.944;2023-06-10T02:47:07;6.07;;;5.57;;
34098;SDS011;20374;49.474;10.944;2023-06-10T02:49:35;6.53;;;6.00;;
34098;SDS011;20374;49.474;10.944;2023-06-10T02:52:01;6.60;;;6.10;;
34098;SDS011;20374;49.474;10.944;2023-06-10T02:54:27;6.50;;;5.90;;
34098;SDS011;20374;49.474;10.944;2023-06-10T02:56:55;8.40;;;6.15;;
34098;SDS011;20374;49.474;10.944;2023-06-10T02:59:23;6.43;;;5.85;;
34098;SDS011;20374;49.474;10.944;2023-06-10T03:01:49;6.15;;;5.63;;
34098;SDS011;20374;49.474;10.944;2023-06-10T03:04:15;6.85;;;6.25;;
34098;SDS011;20374;49.474;10.944;2023-06-10T03:06:50;5.93;;;5.35;;
34098;SDS011;20374;49.474;10.944;2023-06-10T03:09:24;6.63;;;6.03;;
34098;SDS011;20374;49.474;10.944;2023-06-10T03:11:54;7.07;;;6.47;;
34098;SDS011;20374;49.474;10.944;2023-06-10T03:14:21;6.30;;;5.72;;
34098;SDS011;20374;49.474;10.944;2023-06-10T03:16:46;7.10;;;6.53;;
34098;SDS011;20374;49.474;10.944;2023-06-10T03:19:13;7.03;;;6.32;;
34098;SDS011;20374;49.474;10.944;2023-06-10T03:21:43;6.72;;;6.13;;
34098;SDS011;20374;49.474;10.944;2023-06-10T03:24:12;7.10;;;6.50;;
34098;SDS011;20374;49.474;10.944;2023-06-10T03:26:38;7.37;;;6.77;;
34098;SDS011;20374;49.474;10.944;2023-06-10T03:29:06;6.80;;;6.10;;
34098;SDS011;20374;49.474;10.944;2023-06-10T03:31:33;5.72;;;5.22;;
34098;SDS011;20374;49.474;10.944;2023-06-10T03:34:05;7.68;;;6.82;;
34098;SDS011;20374;49.474;10.944;2023-06-10T03:36:31;6.22;;;5.63;;
34098;SDS011;20374;49.474;10.944;2023-06-10T03:38:57;6.47;;;5.87;;
34098;SDS011;20374;49.474;10.944;2023-06-10T03:41:24;6.78;;;6.18;;
34098;SDS011;20374;49.474;10.944;2023-06-10T03:43:50;7.47;;;6.88;;
34098;SDS011;20374;49.474;10.944;2023-06-10T03:46:16;7.97;;;7.15;;
34098;SDS011;20374;49.474;10.944;2023-06-10T03:48:43;7.43;;;6.20;;
34098;SDS011;20374;49.474;10.944;2023-06-10T03:51:09;6.68;;;6.05;;
34098;SDS011;20374;49.474;10.944;2023-06-10T03:53:36;6.95;;;6.35;;
34098;SDS011;20374;49.474;10.944;2023-06-10T03:56:02;7.93;;;7.28;;
34098;SDS011;20374;49.474;10.944;2023-06-10T03:58:29;6.72;;;6.13;;
34098;SDS011;20374;49.474;10.944;2023-06-10T04:00:55;7.70;;;7.10;;
34098;SDS011;20374;49.474;10.944;2023-06-10T04:03:29;6.80;;;6.30;;
34098;SDS011;20374;49.474;10.944;2023-06-10T04:05:54;7.32;;;6.72;;
34098;SDS011;20374;49.474;10.944;2023-06-10T04:08:20;7.17;;;6.57;;
34098;SDS011;20374;49.474;10.944;2023-06-10T04:10:47;8.38;;;7.05;;
34098;SDS011;20374;49.474;10.944;2023-06-10T04:13:13;7.82;;;7.13;;
34098;SDS011;20374;49.474;10.944;2023-06-10T04:15:47;7.03;;;6.35;;
34098;SDS011;20374;49.474;10.944;2023-06-10T04:18:16;7.07;;;6.47;;
34098;SDS011;20374;49.474;10.944;2023-06-10T04:20:43;7.57;;;6.90;;
34098;SDS011;20374;49.474;10.944;2023-06-10T04:23:10;7.75;;;7.05;;
34098;SDS011;20374;49.474;10.944;2023-06-10T04:25:38;7.90;;;7.30;;
34098;SDS011;20374;49.474;10.944;2023-06-10T04:28:04;7.85;;;7.15;;
34098;SDS011;20374;49.474;10.944;2023-06-10T04:30:30;7.90;;;7.10;;
34098;SDS011;20374;49.474;10.944;2023-06-10T04:32:57;7.55;;;6.85;;
34098;SDS011;20374;49.474;10.944;2023-06-10T04:35:24;6.57;;;6.07;;
34098;SDS011;20374;49.474;10.944;2023-06-10T04:37:54;7.22;;;6.53;;
34098;SDS011;20374;49.474;10.944;2023-06-10T04:40:20;6.95;;;6.35;;
34098;SDS011;20374;49.474;10.944;2023-06-10T04:42:47;7.10;;;6.60;;
34098;SDS011;20374;49.474;10.944;2023-06-10T04:45:12;7.50;;;6.82;;
34098;SDS011;20374;49.474;10.944;2023-06-10T04:47:39;7.55;;;6.95;;
34098;SDS011;20374;49.474;10.944;2023-06-10T04:50:10;7.93;;;7.32;;
34098;SDS011;20374;49.474;10.944;2023-06-10T04:52:35;8.03;;;7.43;;
34098;SDS011;20374;49.474;10.944;2023-06-10T04:55:01;7.57;;;6.88;;
34098;SDS011;20374;49.474;10.944;2023-06-10T04:57:27;8.63;;;7.93;;
34098;SDS011;20374;49.474;10.944;2023-06-10T04:59:53;8.27;;;7.57;;
34098;SDS011;20374;49.474;10.944;2023-06-10T05:02:19;7.90;;;7.20;;
34098;SDS011;20374;49.474;10.944;2023-06-10T05:04:45;7.78;;;7.18;;
34098;SDS011;20374;49.474;10.944;2023-06-10T05:07:11;7.82;;;7.22;;
34098;SDS011;20374;49.474;10.944;2023-06-10T05:09:37;8.18;;;7.50;;
34098;SDS011;20374;49.474;10.944;2023-06-10T05:12:03;7.30;;;6.75;;
34098;SDS011;20374;49.474;10.944;2023-06-10T05:14:30;7.57;;;6.97;;
34098;SDS011;20374;49.474;10.944;2023-06-10T05:16:56;7.90;;;7.30;;
34098;SDS011;20374;49.474;10.944;2023-06-10T05:19:22;8.13;;;7.43;;
34098;SDS011;20374;49.474;10.944;2023-06-10T05:21:48;8.55;;;7.85;;
34098;SDS011;20374;49.474;10.944;2023-06-10T05:24:14;8.68;;;8.07;;
34098;SDS011;20374;49.474;10.944;2023-06-10T05:26:40;8.43;;;7.83;;
34098;SDS011;20374;49.474;10.944;2023-06-10T05:29:07;7.78;;;7.07;;
34098;SDS011;20374;49.474;10.944;2023-06-10T05:31:34;8.40;;;7.80;;
34098;SDS011;20374;49.474;10.944;2023-06-10T05:34:00;7.40;;;6.75;;
34098;SDS011;20374;49.474;10.944;2023-06-10T05:36:26;8.67;;;7.77;;
34098;SDS011;20374;49.474;10.944;2023-06-10T05:38:52;8.13;;;7.53;;
34098;SDS011;20374;49.474;10.944;2023-06-10T05:41:18;7.53;;;6.82;;
34098;SDS011;20374;49.474;10.944;2023-06-10T05:43:44;8.17;;;7.47;;
34098;SDS011;20374;49.474;10.944;2023-06-10T05:46:10;8.02;;;7.32;;
34098;SDS011;20374;49.474;10.944;2023-06-10T05:48:36;7.72;;;7.13;;
34098;SDS011;20374;49.474;10.944;2023-06-10T05:51:02;7.60;;;6.90;;
34098;SDS011;20374;49.474;10.944;2023-06-10T05:53:28;7.93;;;7.22;;
34098;SDS011;20374;49.474;10.944;2023-06-10T05:55:54;9.00;;;7.43;;
34098;SDS011;20374;49.474;10.944;2023-06-10T05:58:22;8.18;;;7.47;;
34098;SDS011;20374;49.474;10.944;2023-06-10T06:00:49;8.52;;;7.75;;
34098;SDS011;20374;49.474;10.944;2023-06-10T06:03:15;7.53;;;6.82;;
34098;SDS011;20374;49.474;10.944;2023-06-10T06:05:42;8.15;;;7.45;;
34098;SDS011;20374;49.474;10.944;2023-06-10T06:08:09;8.02;;;7.32;;
34098;SDS011;20374;49.474;10.944;2023-06-10T06:10:35;7.78;;;7.07;;
34098;SDS011;20374;49.474;10.944;2023-06-10T06:13:01;7.85;;;7.15;;
34098;SDS011;20374;49.474;10.944;2023-06-10T06:15:27;7.25;;;6.55;;
34098;SDS011;20374;49.474;10.944;2023-06-10T06:17:53;6.57;;;5.97;;
34098;SDS011;20374;49.474;10.944;2023-06-10T06:20:20;6.87;;;6.27;;
34098;SDS011;20374;49.474;10.944;2023-06-10T06:22:47;8.20;;;7.53;;
34098;SDS011;20374;49.474;10.944;2023-06-10T06:25:13;8.10;;;7.38;;
34098;SDS011;20374;49.474;10.944;2023-06-10T06:27:39;7.27;;;6.67;;
34098;SDS011;20374;49.474;10.944;2023-06-10T06:30:05;8.02;;;7.30;;
34098;SDS011;20374;49.474;10.944;2023-06-10T06:32:31;7.57;;;6.97;;
34098;SDS011;20374;49.474;10.944;2023-06-10T06:34:57;8.18;;;7.47;;
34098;SDS011;20374;49.474;10.944;2023-06-10T06:37:24;8.13;;;7.43;;
34098;SDS011;20374;49.474;10.944;2023-06-10T06:39:57;8.07;;;7.38;;
34098;SDS011;20374;49.474;10.944;2023-06-10T06:42:23;7.32;;;6.68;;
34098;SDS011;20374;49.474;10.944;2023-06-10T06:45:10;8.57;;;7.90;;
34098;SDS011;20374;49.474;10.944;2023-06-10T06:47:36;8.27;;;7.67;;
34098;SDS011;20374;49.474;10.944;2023-06-10T06:50:02;8.40;;;7.15;;
34098;SDS011;20374;49.474;10.944;2023-06-10T06:52:28;8.23;;;7.57;;
34098;SDS011;20374;49.474;10.944;2023-06-10T06:54:54;7.43;;;6.82;;
34098;SDS011;20374;49.474;10.944;2023-06-10T06:57:20;7.28;;;6.78;;
34098;SDS011;20374;49.474;10.944;2023-06-10T06:59:47;8.20;;;7.57;;
34098;SDS011;20374;49.474;10.944;2023-06-10T07:02:12;8.45;;;7.80;;
34098;SDS011;20374;49.474;10.944;2023-06-10T07:04:38;8.10;;;7.50;;
34098;SDS011;20374;49.474;10.944;2023-06-10T07:07:09;7.55;;;6.95;;
34098;SDS011;20374;49.474;10.944;2023-06-10T07:09:35;7.45;;;6.85;;
34098;SDS011;20374;49.474;10.944;2023-06-10T07:12:02;6.45;;;5.95;;
34098;SDS011;20374;49.474;10.944;2023-06-10T07:14:29;8.18;;;7.57;;
34098;SDS011;20374;49.474;10.944;2023-06-10T07:16:55;7.18;;;6.57;;
34098;SDS011;20374;49.474;10.944;2023-06-10T07:19:21;8.35;;;7.75;;
34098;SDS011;20374;49.474;10.944;2023-06-10T07:21:47;7.80;;;7.20;;
34098;SDS011;20374;49.474;10.944;2023-06-10T07:24:13;7.25;;;6.75;;
34098;SDS011;20374;49.474;10.944;2023-06-10T07:26:39;8.00;;;7.25;;
34098;SDS011;20374;49.474;10.944;2023-06-10T07:29:05;7.40;;;6.90;;
34098;SDS011;20374;49.474;10.944;2023-06-10T07:31:31;6.65;;;6.05;;
34098;SDS011;20374;49.474;10.944;2023-06-10T07:33:56;7.45;;;6.80;;
34098;SDS011;20374;49.474;10.944;2023-06-10T07:36:22;6.60;;;6.10;;
34098;SDS011;20374;49.474;10.944;2023-06-10T07:38:48;6.40;;;5.80;;
34098;SDS011;20374;49.474;10.944;2023-06-10T07:41:14;7.25;;;6.57;;
34098;SDS011;20374;49.474;10.944;2023-06-10T07:43:43;5.82;;;5.32;;
34098;SDS011;20374;49.474;10.944;2023-06-10T07:46:08;7.00;;;6.40;;
34098;SDS011;20374;49.474;10.944;2023-06-10T07:48:34;6.63;;;6.13;;
34098;SDS011;20374;49.474;10.944;2023-06-10T07:51:00;7.40;;;6.70;;
34098;SDS011;20374;49.474;10.944;2023-06-10T07:53:26;6.53;;;6.03;;
34098;SDS011;20374;49.474;10.944;2023-06-10T07:55:52;6.83;;;6.33;;
34098;SDS011;20374;49.474;10.944;2023-06-10T07:58:18;6.20;;;5.70;;
34098;SDS011;20374;49.474;10.944;2023-06-10T08:00:44;5.82;;;5.40;;
34098;SDS011;20374;49.474;10.944;2023-06-10T08:03:09;6.40;;;5.93;;
34098;SDS011;20374;49.474;10.944;2023-06-10T08:05:35;5.82;;;5.38;;
34098;SDS011;20374;49.474;10.944;2023-06-10T08:08:01;6.55;;;6.13;;
34098;SDS011;20374;49.474;10.944;2023-06-10T08:10:27;6.30;;;5.90;;
34098;SDS011;20374;49.474;10.944;2023-06-10T08:12:53;6.57;;;6.18;;
34098;SDS011;20374;49.474;10.944;2023-06-10T08:15:18;6.45;;;5.97;;
34098;SDS011;20374;49.474;10.944;2023-06-10T08:17:44;6.28;;;5.78;;
34098;SDS011;20374;49.474;10.944;2023-06-10T08:20:10;7.22;;;6.72;;
34098;SDS011;20374;49.474;10.944;2023-06-10T08:22:36;6.30;;;5.80;;
34098;SDS011;20374;49.474;10.944;2023-06-10T08:25:03;6.18;;;5.78;;
34098;SDS011;20374;49.474;10.944;2023-06-10T08:27:29;6.22;;;5.75;;
34098;SDS011;20374;49.474;10.944;2023-06-10T08:29:55;5.68;;;5.28;;
34098;SDS011;20374;49.474;10.944;2023-06-10T08:32:21;6.90;;;5.27;;
34098;SDS011;20374;49.474;10.944;2023-06-10T08:34:46;5.35;;;4.95;;
34098;SDS011;20374;49.474;10.944;2023-06-10T08:37:12;5.03;;;4.63;;
34098;SDS011;20374;49.474;10.944;2023-06-10T08:39:38;6.03;;;5.47;;
34098;SDS011;20374;49.474;10.944;2023-06-10T08:44:42;5.85;;;5.45;;
34098;SDS011;20374;49.474;10.944;2023-06-10T08:47:14;6.18;;;5.78;;
34098;SDS011;20374;49.474;10.944;2023-06-10T08:49:43;5.25;;;4.85;;
34098;SDS011;20374;49.474;10.944;2023-06-10T08:52:19;5.63;;;5.23;;
34098;SDS011;20374;49.474;10.944;2023-06-10T08:55:05;5.10;;;4.70;;
34098;SDS011;20374;49.474;10.944;2023-06-10T08:57:43;6.57;;;6.07;;
34098;SDS011;20374;49.474;10.944;2023-06-10T09:00:10;5.95;;;5.55;;
34098;SDS011;20374;49.474;10.944;2023-06-10T09:02:38;5.72;;;5.32;;
34098;SDS011;20374;49.474;10.944;2023-06-10T09:05:04;6.17;;;5.77;;
34098;SDS011;20374;49.474;10.944;2023-06-10T09:07:31;5.65;;;5.35;;
34098;SDS011;20374;49.474;10.944;2023-06-10T09:09:57;4.82;;;4.53;;
34098;SDS011;20374;49.474;10.944;2023-06-10T09:12:24;6.43;;;6.03;;
34098;SDS011;20374;49.474;10.944;2023-06-10T09:14:50;5.80;;;5.40;;
34098;SDS011;20374;49.474;10.944;2023-06-10T09:17:16;6.35;;;5.95;;
34098;SDS011;20374;49.474;10.944;2023-06-10T09:19:43;5.22;;;4.93;;
34098;SDS011;20374;49.474;10.944;2023-06-10T09:22:10;6.47;;;6.07;;
34098;SDS011;20374;49.474;10.944;2023-06-10T09:24:36;5.97;;;5.47;;
34098;SDS011;20374;49.474;10.944;2023-06-10T09:27:04;6.03;;;5.63;;
34098;SDS011;20374;49.474;10.944;2023-06-10T09:29:32;6.30;;;5.85;;
34098;SDS011;20374;49.474;10.944;2023-06-10T09:32:13;7.07;;;6.68;;
34098;SDS011;20374;49.474;10.944;2023-06-10T09:34:39;5.70;;;5.30;;
34098;SDS011;20374;49.474;10.944;2023-06-10T09:37:06;6.05;;;5.65;;
34098;SDS011;20374;49.474;10.944;2023-06-10T09:39:34;6.65;;;6.25;;
34098;SDS011;20374;49.474;10.944;2023-06-10T09:42:00;5.90;;;5.50;;
34098;SDS011;20374;49.474;10.944;2023-06-10T09:44:25;6.53;;;6.13;;
34098;SDS011;20374;49.474;10.944;2023-06-10T09:46:52;6.78;;;6.38;;
34098;SDS011;20374;49.474;10.944;2023-06-10T09:49:19;6.88;;;6.47;;
34098;SDS011;20374;49.474;10.944;2023-06-10T09:51:49;7.17;;;6.77;;
34098;SDS011;20374;49.474;10.944;2023-06-10T09:54:19;6.90;;;6.50;;
34098;SDS011;20374;49.474;10.944;2023-06-10T09:56:49;6.88;;;6.47;;
34098;SDS011;20374;49.474;10.944;2023-06-10T09:59:30;7.13;;;6.72;;
34098;SDS011;20374;49.474;10.944;2023-06-10T10:01:59;6.80;;;6.40;;
34098;SDS011;20374;49.474;10.944;2023-06-10T10:04:25;6.87;;;6.47;;
34098;SDS011;20374;49.474;10.944;2023-06-10T10:06:52;5.55;;;5.15;;
34098;SDS011;20374;49.474;10.944;2023-06-10T10:09:18;7.10;;;6.70;;
34098;SDS011;20374;49.474;10.944;2023-06-10T10:11:44;6.65;;;6.25;;
34098;SDS011;20374;49.474;10.944;2023-06-10T10:14:11;7.20;;;6.70;;
34098;SDS011;20374;49.474;10.944;2023-06-10T10:16:40;6.70;;;6.30;;
34098;SDS011;20374;49.474;10.944;2023-06-10T10:19:09;6.70;;;6.30;;
34098;SDS011;20374;49.474;10.944;2023-06-10T10:21:40;8.05;;;7.55;;
34098;SDS011;20374;49.474;10.944;2023-06-10T10:24:20;7.13;;;6.72;;
34098;SDS011;20374;49.474;10.944;2023-06-10T10:26:48;8.00;;;7.50;;
34098;SDS011;20374;49.474;10.944;2023-06-10T10:29:23;7.03;;;6.53;;
34098;SDS011;20374;49.474;10.944;2023-06-10T10:31:56;6.97;;;6.57;;
34098;SDS011;20374;49.474;10.944;2023-06-10T10:37:22;6.40;;;6.00;;
34098;SDS011;20374;49.474;10.944;2023-06-10T10:39:48;7.27;;;6.77;;
34098;SDS011;20374;49.474;10.944;2023-06-10T10:42:15;6.90;;;6.50;;
34098;SDS011;20374;49.474;10.944;2023-06-10T10:44:42;6.55;;;6.15;;
34098;SDS011;20374;49.474;10.944;2023-06-10T10:47:09;7.22;;;6.78;;
34098;SDS011;20374;49.474;10.944;2023-06-10T10:49:37;6.20;;;5.80;;
34098;SDS011;20374;49.474;10.944;2023-06-10T10:52:03;7.63;;;7.23;;
34098;SDS011;20374;49.474;10.944;2023-06-10T10:54:33;6.57;;;6.15;;
34098;SDS011;20374;49.474;10.944;2023-06-10T11:04:47;7.83;;;7.33;;
34098;SDS011;20374;49.474;10.944;2023-06-10T11:07:14;6.43;;;6.03;;
34098;SDS011;20374;49.474;10.944;2023-06-10T11:15:32;7.80;;;7.30;;
34098;SDS011;20374;49.474;10.944;2023-06-10T11:20:45;7.55;;;7.03;;
34098;SDS011;20374;49.474;10.944;2023-06-10T11:28:38;6.68;;;6.28;;
34098;SDS011;20374;49.474;10.944;2023-06-10T11:33:56;8.85;;;8.35;;
34098;SDS011;20374;49.474;10.944;2023-06-10T11:36:23;9.18;;;8.68;;
34098;SDS011;20374;49.474;10.944;2023-06-10T11:39:12;10.98;;;10.38;;
34098;SDS011;20374;49.474;10.944;2023-06-10T11:41:37;9.40;;;8.90;;
34098;SDS011;20374;49.474;10.944;2023-06-10T11:44:12;9.90;;;9.40;;
34098;SDS011;20374;49.474;10.944;2023-06-10T11:46:39;10.02;;;9.40;;
34098;SDS011;20374;49.474;10.944;2023-06-10T11:49:05;8.13;;;7.70;;
34098;SDS011;20374;49.474;10.944;2023-06-10T11:51:38;8.52;;;8.02;;
34098;SDS011;20374;49.474;10.944;2023-06-10T11:54:07;7.93;;;7.43;;
34098;SDS011;20374;49.474;10.944;2023-06-10T11:56:34;8.87;;;8.37;;
34098;SDS011;20374;49.474;10.944;2023-06-10T11:59:01;6.80;;;6.40;;
34098;SDS011;20374;49.474;10.944;2023-06-10T12:01:35;8.48;;;7.97;;
34098;SDS011;20374;49.474;10.944;2023-06-10T12:04:06;9.15;;;8.65;;
34098;SDS011;20374;49.474;10.944;2023-06-10T12:06:43;7.75;;;7.28;;
34098;SDS011;20374;49.474;10.944;2023-06-10T12:09:14;7.70;;;7.27;;
34098;SDS011;20374;49.474;10.944;2023-06-10T12:11:54;6.80;;;6.40;;
34098;SDS011;20374;49.474;10.944;2023-06-10T12:17:17;7.53;;;7.13;;
34098;SDS011;20374;49.474;10.944;2023-06-10T12:19:43;7.50;;;7.00;;
34098;SDS011;20374;49.474;10.944;2023-06-10T12:22:08;6.23;;;5.83;;
34098;SDS011;20374;49.474;10.944;2023-06-10T12:24:43;6.88;;;6.47;;
34098;SDS011;20374;49.474;10.944;2023-06-10T12:27:13;6.55;;;6.15;;
34098;SDS011;20374;49.474;10.944;2023-06-10T12:29:39;7.33;;;6.93;;
34098;SDS011;20374;49.474;10.944;2023-06-10T12:32:16;8.07;;;7.57;;
34098;SDS011;20374;49.474;10.944;2023-06-10T12:34:43;7.10;;;6.60;;
34098;SDS011;20374;49.474;10.944;2023-06-10T12:37:10;6.68;;;6.28;;
34098;SDS011;20374;49.474;10.944;2023-06-10T12:39:41;7.03;;;6.63;;
34098;SDS011;20374;49.474;10.944;2023-06-10T12:42:12;6.47;;;6.07;;
34098;SDS011;20374;49.474;10.944;2023-06-10T12:44:41;6.50;;;6.10;;
34098;SDS011;20374;49.474;10.944;2023-06-10T12:47:07;5.53;;;5.13;;
34098;SDS011;20374;49.474;10.944;2023-06-10T12:49:35;6.38;;;5.97;;
34098;SDS011;20374;49.474;10.944;2023-06-10T12:52:02;7.17;;;6.77;;
34098;SDS011;20374;49.474;10.944;2023-06-10T12:54:29;5.57;;;5.18;;
34098;SDS011;20374;49.474;10.944;2023-06-10T12:56:54;6.55;;;6.15;;
34098;SDS011;20374;49.474;10.944;2023-06-10T12:59:20;7.00;;;6.60;;
34098;SDS011;20374;49.474;10.944;2023-06-10T13:01:52;7.32;;;6.93;;
34098;SDS011;20374;49.474;10.944;2023-06-10T13:04:19;7.45;;;7.05;;
34098;SDS011;20374;49.474;10.944;2023-06-10T13:06:46;5.97;;;5.57;;
34098;SDS011;20374;49.474;10.944;2023-06-10T13:09:14;6.67;;;6.27;;
34098;SDS011;20374;49.474;10.944;2023-06-10T13:11:40;6.03;;;5.72;;
34098;SDS011;20374;49.474;10.944;2023-06-10T13:14:08;7.47;;;7.07;;
34098;SDS011;20374;49.474;10.944;2023-06-10T13:16:35;5.93;;;5.57;;
34098;SDS011;20374;49.474;10.944;2023-06-10T13:19:03;7.70;;;7.20;;
34098;SDS011;20374;49.474;10.944;2023-06-10T13:21:31;6.97;;;6.57;;
34098;SDS011;20374;49.474;10.944;2023-06-10T13:23:58;6.82;;;6.40;;
34098;SDS011;20374;49.474;10.944;2023-06-10T13:26:23;7.05;;;6.65;;
34098;SDS011;20374;49.474;10.944;2023-06-10T13:28:49;7.40;;;7.00;;
34098;SDS011;20374;49.474;10.944;2023-06-10T13:31:15;7.80;;;7.30;;
34098;SDS011;20374;49.474;10.944;2023-06-10T13:33:41;8.88;;;8.38;;
34098;SDS011;20374;49.474;10.944;2023-06-10T13:36:08;6.85;;;6.45;;
34098;SDS011;20374;49.474;10.944;2023-06-10T13:38:35;8.07;;;7.67;;
34098;SDS011;20374;49.474;10.944;2023-06-10T13:41:00;6.28;;;5.88;;
34098;SDS011;20374;49.474;10.944;2023-06-10T13:43:26;7.20;;;6.68;;
34098;SDS011;20374;49.474;10.944;2023-06-10T13:45:54;7.07;;;6.68;;
34098;SDS011;20374;49.474;10.944;2023-06-10T13:48:20;6.10;;;5.70;;
34098;SDS011;20374;49.474;10.944;2023-06-10T13:50:46;6.70;;;6.30;;
34098;SDS011;20374;49.474;10.944;2023-06-10T13:53:12;7.47;;;7.07;;
34098;SDS011;20374;49.474;10.944;2023-06-10T13:55:38;7.55;;;7.15;;
34098;SDS011;20374;49.474;10.944;2023-06-10T13:58:04;7.07;;;6.67;;
34098;SDS011;20374;49.474;10.944;2023-06-10T14:00:32;7.03;;;6.63;;
34098;SDS011;20374;49.474;10.944;2023-06-10T14:02:58;6.47;;;6.07;;
34098;SDS011;20374;49.474;10.944;2023-06-10T14:05:23;6.60;;;6.20;;
34098;SDS011;20374;49.474;10.944;2023-06-10T14:07:49;6.97;;;6.57;;
34098;SDS011;20374;49.474;10.944;2023-06-10T14:10:15;6.77;;;6.37;;
34098;SDS011;20374;49.474;10.944;2023-06-10T14:12:41;6.40;;;6.03;;
34098;SDS011;20374;49.474;10.944;2023-06-10T14:15:07;5.68;;;5.28;;
34098;SDS011;20374;49.474;10.944;2023-06-10T14:17:33;7.00;;;6.60;;
34098;SDS011;20374;49.474;10.944;2023-06-10T14:19:59;6.40;;;6.00;;
34098;SDS011;20374;49.474;10.944;2023-06-10T14:22:25;6.88;;;6.47;;
34098;SDS011;20374;49.474;10.944;2023-06-10T14:24:50;6.90;;;6.50;;
34098;SDS011;20374;49.474;10.944;2023-06-10T14:27:16;6.15;;;5.75;;
34098;SDS011;20374;49.474;10.944;2023-06-10T14:29:42;4.70;;;4.40;;
34098;SDS011;20374;49.474;10.944;2023-06-10T14:32:08;5.53;;;5.13;;
34098;SDS011;20374;49.474;10.944;2023-06-10T14:34:34;6.30;;;5.90;;
34098;SDS011;20374;49.474;10.944;2023-06-10T14:37:00;6.70;;;6.30;;
34098;SDS011;20374;49.474;10.944;2023-06-10T14:39:28;7.37;;;6.97;;
34098;SDS011;20374;49.474;10.944;2023-06-10T14:41:54;6.35;;;5.95;;
34098;SDS011;20374;49.474;10.944;2023-06-10T14:44:20;8.20;;;7.80;;
34098;SDS011;20374;49.474;10.944;2023-06-10T14:46:46;8.03;;;7.63;;
34098;SDS011;20374;49.474;10.944;2023-06-10T14:49:12;7.22;;;6.82;;
34098;SDS011;20374;49.474;10.944;2023-06-10T14:51:38;7.57;;;7.18;;
34098;SDS011;20374;49.474;10.944;2023-06-10T14:54:04;6.67;;;6.27;;
34098;SDS011;20374;49.474;10.944;2023-06-10T14:56:30;6.55;;;6.15;;
34098;SDS011;20374;49.474;10.944;2023-06-10T14:58:56;6.95;;;6.55;;
34098;SDS011;20374;49.474;10.944;2023-06-10T15:01:22;6.13;;;5.73;;
34098;SDS011;20374;49.474;10.944;2023-06-10T15:03:48;6.25;;;5.85;;
34098;SDS011;20374;49.474;10.944;2023-06-10T15:06:14;6.25;;;5.93;;
34098;SDS011;20374;49.474;10.944;2023-06-10T15:08:42;5.65;;;5.35;;
34098;SDS011;20374;49.474;10.944;2023-06-10T15:11:08;6.93;;;6.53;;
34098;SDS011;20374;49.474;10.944;2023-06-10T15:13:34;7.10;;;6.70;;
34098;SDS011;20374;49.474;10.944;2023-06-10T15:15:59;6.00;;;5.70;;